sensor_id;sensor_type;location;lat;lon;timestamp;temperature;humidity
2729;DHT22;1372;47.956;7.830;2022-09-30T00:00:30;10.90;99.90
2729;DHT22;1372;47.956;7.830;2022-09-30T00:02:59;10.80;99.90
2729;DHT22;1372;47.956;7.830;2022-09-30T00:05:29;10.80;99.90
2729;DHT22;1372;47.956;7.830;2022-09-30T00:07:58;10.70;99.90
2729;DHT22;1372;47.956;7.830;2022-09-30T00:10:28;10.70;99.90
2729;DHT22;1372;47.956;7.830;2022-09-30T00:12:57;10.70;99.90
2729;DHT22;1372;47.956;7.830;2022-09-30T00:15:26;10.70;99.90
2729;DHT22;1372;47.956;7.830;2022-09-30T00:17:55;10.80;99.90
2729;DHT22;1372;47.956;7.830;2022-09-30T00:20:25;10.70;99.90
2729;DHT22;1372;47.956;7.830;2022-09-30T00:22:56;10.70;99.90
2729;DHT22;1372;47.956;7.830;2022-09-30T00:25:24;10.70;99.90
2729;DHT22;1372;47.956;7.830;2022-09-30T00:27:53;10.70;99.90
2729;DHT22;1372;47.956;7.830;2022-09-30T00:30:22;10.80;99.90
2729;DHT22;1372;47.956;7.830;2022-09-30T00:32:50;10.80;99.90
2729;DHT22;1372;47.956;7.830;2022-09-30T00:35:19;10.80;99.90
2729;DHT22;1372;47.956;7.830;2022-09-30T00:37:48;10.90;99.90
2729;DHT22;1372;47.956;7.830;2022-09-30T00:40:19;10.90;99.90
2729;DHT22;1372;47.956;7.830;2022-09-30T00:42:49;10.90;99.90
2729;DHT22;1372;47.956;7.830;2022-09-30T00:45:18;10.90;99.90
2729;DHT22;1372;47.956;7.830;2022-09-30T00:47:50;10.80;99.90
2729;DHT22;1372;47.956;7.830;2022-09-30T00:50:30;10.90;99.90
2729;DHT22;1372;47.956;7.830;2022-09-30T00:53:06;10.90;99.90
2729;DHT22;1372;47.956;7.830;2022-09-30T00:55:49;10.80;99.90
2729;DHT22;1372;47.956;7.830;2022-09-30T00:58:24;10.80;99.90
2729;DHT22;1372;47.956;7.830;2022-09-30T01:00:59;10.80;99.90
2729;DHT22;1372;47.956;7.830;2022-09-30T01:03:30;10.80;99.90
2729;DHT22;1372;47.956;7.830;2022-09-30T01:05:59;10.80;99.90
2729;DHT22;1372;47.956;7.830;2022-09-30T01:08:29;10.80;99.90
2729;DHT22;1372;47.956;7.830;2022-09-30T01:11:01;10.80;99.90
2729;DHT22;1372;47.956;7.830;2022-09-30T01:13:35;10.90;99.90
2729;DHT22;1372;47.956;7.830;2022-09-30T01:16:35;10.80;99.90
2729;DHT22;1372;47.956;7.830;2022-09-30T01:19:35;10.80;99.90
2729;DHT22;1372;47.956;7.830;2022-09-30T01:22:34;10.80;99.90
2729;DHT22;1372;47.956;7.830;2022-09-30T01:25:30;10.90;99.90
2729;DHT22;1372;47.956;7.830;2022-09-30T01:28:45;10.90;99.90
2729;DHT22;1372;47.956;7.830;2022-09-30T01:31:35;10.90;99.90
2729;DHT22;1372;47.956;7.830;2022-09-30T01:34:16;10.80;99.90
2729;DHT22;1372;47.956;7.830;2022-09-30T01:37:02;10.80;99.90
2729;DHT22;1372;47.956;7.830;2022-09-30T01:39:48;10.90;99.90
2729;DHT22;1372;47.956;7.830;2022-09-30T01:42:23;10.90;99.90
2729;DHT22;1372;47.956;7.830;2022-09-30T01:44:58;10.90;99.90
2729;DHT22;1372;47.956;7.830;2022-09-30T01:47:38;10.90;99.90
2729;DHT22;1372;47.956;7.830;2022-09-30T01:50:15;10.90;99.90
2729;DHT22;1372;47.956;7.830;2022-09-30T01:52:53;10.90;99.90
2729;DHT22;1372;47.956;7.830;2022-09-30T01:55:28;10.90;99.90
2729;DHT22;1372;47.956;7.830;2022-09-30T01:58:04;10.90;99.90
2729;DHT22;1372;47.956;7.830;2022-09-30T02:00:38;10.90;99.90
2729;DHT22;1372;47.956;7.830;2022-09-30T02:03:16;10.90;99.90
2729;DHT22;1372;47.956;7.830;2022-09-30T02:05:53;11.00;99.90
2729;DHT22;1372;47.956;7.830;2022-09-30T02:08:29;11.00;99.90
2729;DHT22;1372;47.956;7.830;2022-09-30T02:11:04;11.00;99.90
2729;DHT22;1372;47.956;7.830;2022-09-30T02:13:39;11.00;99.90
2729;DHT22;1372;47.956;7.830;2022-09-30T02:16:14;11.00;99.90
2729;DHT22;1372;47.956;7.830;2022-09-30T02:18:47;11.00;99.90
2729;DHT22;1372;47.956;7.830;2022-09-30T02:21:22;11.00;99.90
2729;DHT22;1372;47.956;7.830;2022-09-30T02:23:57;11.00;99.90
2729;DHT22;1372;47.956;7.830;2022-09-30T02:26:35;10.90;99.90
2729;DHT22;1372;47.956;7.830;2022-09-30T02:29:09;10.90;99.90
2729;DHT22;1372;47.956;7.830;2022-09-30T02:31:42;10.90;99.90
2729;DHT22;1372;47.956;7.830;2022-09-30T02:34:16;10.90;99.90
2729;DHT22;1372;47.956;7.830;2022-09-30T02:36:51;10.90;99.90
2729;DHT22;1372;47.956;7.830;2022-09-30T02:39:30;10.80;99.90
2729;DHT22;1372;47.956;7.830;2022-09-30T02:42:07;10.80;99.90
2729;DHT22;1372;47.956;7.830;2022-09-30T02:44:39;10.90;99.90
2729;DHT22;1372;47.956;7.830;2022-09-30T02:47:13;10.90;99.90
2729;DHT22;1372;47.956;7.830;2022-09-30T02:49:48;10.90;99.90
2729;DHT22;1372;47.956;7.830;2022-09-30T02:52:25;10.90;99.90
2729;DHT22;1372;47.956;7.830;2022-09-30T02:55:05;10.90;99.90
2729;DHT22;1372;47.956;7.830;2022-09-30T02:57:41;10.90;99.90
2729;DHT22;1372;47.956;7.830;2022-09-30T03:00:20;10.90;99.90
2729;DHT22;1372;47.956;7.830;2022-09-30T03:02:55;10.90;99.90
2729;DHT22;1372;47.956;7.830;2022-09-30T03:05:27;10.90;99.90
2729;DHT22;1372;47.956;7.830;2022-09-30T03:07:56;10.80;99.90
2729;DHT22;1372;47.956;7.830;2022-09-30T03:10:25;10.70;99.90
2729;DHT22;1372;47.956;7.830;2022-09-30T03:13:08;10.70;99.90
2729;DHT22;1372;47.956;7.830;2022-09-30T03:15:57;10.70;99.90
2729;DHT22;1372;47.956;7.830;2022-09-30T03:18:56;10.70;99.90
2729;DHT22;1372;47.956;7.830;2022-09-30T03:21:49;10.70;99.90
2729;DHT22;1372;47.956;7.830;2022-09-30T03:24:35;10.70;99.90
2729;DHT22;1372;47.956;7.830;2022-09-30T03:27:17;10.70;99.90
2729;DHT22;1372;47.956;7.830;2022-09-30T03:30:00;10.70;99.90
2729;DHT22;1372;47.956;7.830;2022-09-30T03:32:51;10.60;99.90
2729;DHT22;1372;47.956;7.830;2022-09-30T03:35:41;10.60;99.90
2729;DHT22;1372;47.956;7.830;2022-09-30T03:38:26;10.60;99.90
2729;DHT22;1372;47.956;7.830;2022-09-30T03:41:05;10.50;99.90
2729;DHT22;1372;47.956;7.830;2022-09-30T03:43:41;10.50;99.90
2729;DHT22;1372;47.956;7.830;2022-09-30T03:46:18;10.40;99.90
2729;DHT22;1372;47.956;7.830;2022-09-30T03:48:51;10.40;99.90
2729;DHT22;1372;47.956;7.830;2022-09-30T03:51:22;10.40;99.90
2729;DHT22;1372;47.956;7.830;2022-09-30T03:53:55;10.40;99.90
2729;DHT22;1372;47.956;7.830;2022-09-30T03:56:26;10.40;99.90
2729;DHT22;1372;47.956;7.830;2022-09-30T03:58:58;10.30;99.90
2729;DHT22;1372;47.956;7.830;2022-09-30T04:01:28;10.30;99.90
2729;DHT22;1372;47.956;7.830;2022-09-30T04:03:58;10.20;99.90
2729;DHT22;1372;47.956;7.830;2022-09-30T04:06:26;10.20;99.90
2729;DHT22;1372;47.956;7.830;2022-09-30T04:08:57;10.30;99.90
2729;DHT22;1372;47.956;7.830;2022-09-30T04:11:29;10.40;99.90
2729;DHT22;1372;47.956;7.830;2022-09-30T04:13:58;10.40;99.90
2729;DHT22;1372;47.956;7.830;2022-09-30T04:16:29;10.40;99.90
2729;DHT22;1372;47.956;7.830;2022-09-30T04:18:58;10.40;99.90
2729;DHT22;1372;47.956;7.830;2022-09-30T04:21:27;10.40;99.90
2729;DHT22;1372;47.956;7.830;2022-09-30T04:23:57;10.40;99.90
2729;DHT22;1372;47.956;7.830;2022-09-30T04:26:32;10.50;99.90
2729;DHT22;1372;47.956;7.830;2022-09-30T04:29:00;10.50;99.90
2729;DHT22;1372;47.956;7.830;2022-09-30T04:31:29;10.50;99.90
2729;DHT22;1372;47.956;7.830;2022-09-30T04:33:58;10.50;99.90
2729;DHT22;1372;47.956;7.830;2022-09-30T04:36:27;10.60;99.90
2729;DHT22;1372;47.956;7.830;2022-09-30T04:38:58;10.60;99.90
2729;DHT22;1372;47.956;7.830;2022-09-30T04:41:27;10.60;99.90
2729;DHT22;1372;47.956;7.830;2022-09-30T04:43:55;10.60;99.90
2729;DHT22;1372;47.956;7.830;2022-09-30T04:46:27;10.60;99.90
2729;DHT22;1372;47.956;7.830;2022-09-30T04:48:57;10.60;99.90
2729;DHT22;1372;47.956;7.830;2022-09-30T04:51:40;10.60;99.90
2729;DHT22;1372;47.956;7.830;2022-09-30T04:54:18;10.60;99.90
2729;DHT22;1372;47.956;7.830;2022-09-30T04:57:02;10.60;99.90
2729;DHT22;1372;47.956;7.830;2022-09-30T04:59:32;10.60;99.90
2729;DHT22;1372;47.956;7.830;2022-09-30T05:02:01;10.60;99.90
2729;DHT22;1372;47.956;7.830;2022-09-30T05:04:30;10.50;99.90
2729;DHT22;1372;47.956;7.830;2022-09-30T05:07:00;10.50;99.90
2729;DHT22;1372;47.956;7.830;2022-09-30T05:09:31;10.40;99.90
2729;DHT22;1372;47.956;7.830;2022-09-30T05:12:03;10.40;99.90
2729;DHT22;1372;47.956;7.830;2022-09-30T05:14:32;10.40;99.90
2729;DHT22;1372;47.956;7.830;2022-09-30T05:17:01;10.30;99.90
2729;DHT22;1372;47.956;7.830;2022-09-30T05:19:30;10.20;99.90
2729;DHT22;1372;47.956;7.830;2022-09-30T05:21:59;10.10;99.90
2729;DHT22;1372;47.956;7.830;2022-09-30T05:24:27;10.20;99.90
2729;DHT22;1372;47.956;7.830;2022-09-30T05:26:58;10.20;99.90
2729;DHT22;1372;47.956;7.830;2022-09-30T05:29:27;10.20;99.90
2729;DHT22;1372;47.956;7.830;2022-09-30T05:31:55;10.20;99.90
2729;DHT22;1372;47.956;7.830;2022-09-30T05:34:24;10.10;99.90
2729;DHT22;1372;47.956;7.830;2022-09-30T05:36:53;10.10;99.90
2729;DHT22;1372;47.956;7.830;2022-09-30T05:39:22;10.20;99.90
2729;DHT22;1372;47.956;7.830;2022-09-30T05:41:50;10.20;99.90
2729;DHT22;1372;47.956;7.830;2022-09-30T05:44:20;10.20;99.90
2729;DHT22;1372;47.956;7.830;2022-09-30T05:46:49;10.30;99.90
2729;DHT22;1372;47.956;7.830;2022-09-30T05:49:18;10.30;99.90
2729;DHT22;1372;47.956;7.830;2022-09-30T05:51:48;10.30;99.90
2729;DHT22;1372;47.956;7.830;2022-09-30T05:54:16;10.40;99.90
2729;DHT22;1372;47.956;7.830;2022-09-30T05:56:46;10.30;99.90
2729;DHT22;1372;47.956;7.830;2022-09-30T05:59:16;10.40;99.90
2729;DHT22;1372;47.956;7.830;2022-09-30T06:01:47;10.40;99.90
2729;DHT22;1372;47.956;7.830;2022-09-30T06:04:16;10.40;99.90
2729;DHT22;1372;47.956;7.830;2022-09-30T06:06:45;10.40;99.90
2729;DHT22;1372;47.956;7.830;2022-09-30T06:09:14;10.50;99.90
2729;DHT22;1372;47.956;7.830;2022-09-30T06:11:43;10.50;99.90
2729;DHT22;1372;47.956;7.830;2022-09-30T06:14:12;10.50;99.90
2729;DHT22;1372;47.956;7.830;2022-09-30T06:16:43;10.50;99.90
2729;DHT22;1372;47.956;7.830;2022-09-30T06:19:13;10.50;99.90
2729;DHT22;1372;47.956;7.830;2022-09-30T06:21:42;10.60;99.90
2729;DHT22;1372;47.956;7.830;2022-09-30T06:24:13;10.50;99.90
2729;DHT22;1372;47.956;7.830;2022-09-30T06:26:42;10.60;99.90
2729;DHT22;1372;47.956;7.830;2022-09-30T06:29:11;10.50;99.90
2729;DHT22;1372;47.956;7.830;2022-09-30T06:31:40;10.40;99.90
2729;DHT22;1372;47.956;7.830;2022-09-30T06:34:09;10.40;99.90
2729;DHT22;1372;47.956;7.830;2022-09-30T06:36:39;10.50;99.90
2729;DHT22;1372;47.956;7.830;2022-09-30T06:39:08;10.50;99.90
2729;DHT22;1372;47.956;7.830;2022-09-30T06:41:39;10.60;99.90
2729;DHT22;1372;47.956;7.830;2022-09-30T06:44:10;10.60;99.90
2729;DHT22;1372;47.956;7.830;2022-09-30T06:46:39;10.60;99.90
2729;DHT22;1372;47.956;7.830;2022-09-30T06:49:22;10.60;99.90
2729;DHT22;1372;47.956;7.830;2022-09-30T06:51:52;10.60;99.90
2729;DHT22;1372;47.956;7.830;2022-09-30T06:54:21;10.70;99.90
2729;DHT22;1372;47.956;7.830;2022-09-30T06:56:50;10.70;99.90
2729;DHT22;1372;47.956;7.830;2022-09-30T06:59:20;10.70;99.90
2729;DHT22;1372;47.956;7.830;2022-09-30T07:01:49;10.60;99.90
2729;DHT22;1372;47.956;7.830;2022-09-30T07:04:18;10.70;99.90
2729;DHT22;1372;47.956;7.830;2022-09-30T07:06:46;10.70;99.90
2729;DHT22;1372;47.956;7.830;2022-09-30T07:09:17;10.70;99.90
2729;DHT22;1372;47.956;7.830;2022-09-30T07:11:46;10.60;99.90
2729;DHT22;1372;47.956;7.830;2022-09-30T07:14:16;10.60;99.90
2729;DHT22;1372;47.956;7.830;2022-09-30T07:16:44;10.50;99.90
2729;DHT22;1372;47.956;7.830;2022-09-30T07:19:13;10.60;99.90
2729;DHT22;1372;47.956;7.830;2022-09-30T07:21:43;10.60;99.90
2729;DHT22;1372;47.956;7.830;2022-09-30T07:24:12;10.60;99.90
2729;DHT22;1372;47.956;7.830;2022-09-30T07:26:43;10.60;99.90
2729;DHT22;1372;47.956;7.830;2022-09-30T07:29:12;10.60;99.90
2729;DHT22;1372;47.956;7.830;2022-09-30T07:31:41;10.50;99.90
2729;DHT22;1372;47.956;7.830;2022-09-30T07:34:10;10.50;99.90
2729;DHT22;1372;47.956;7.830;2022-09-30T07:36:40;10.40;99.90
2729;DHT22;1372;47.956;7.830;2022-09-30T07:39:10;10.30;99.90
2729;DHT22;1372;47.956;7.830;2022-09-30T07:41:39;10.40;99.90
2729;DHT22;1372;47.956;7.830;2022-09-30T07:44:13;10.50;99.90
2729;DHT22;1372;47.956;7.830;2022-09-30T07:46:43;10.50;99.90
2729;DHT22;1372;47.956;7.830;2022-09-30T07:49:14;10.50;99.90
2729;DHT22;1372;47.956;7.830;2022-09-30T07:51:52;10.50;99.90
2729;DHT22;1372;47.956;7.830;2022-09-30T07:54:24;10.60;99.90
2729;DHT22;1372;47.956;7.830;2022-09-30T07:56:55;10.70;99.90
2729;DHT22;1372;47.956;7.830;2022-09-30T07:59:43;10.70;99.90
2729;DHT22;1372;47.956;7.830;2022-09-30T08:02:14;10.80;99.90
2729;DHT22;1372;47.956;7.830;2022-09-30T08:04:44;10.80;99.90
2729;DHT22;1372;47.956;7.830;2022-09-30T08:07:15;10.80;99.90
2729;DHT22;1372;47.956;7.830;2022-09-30T08:09:44;10.80;99.90
2729;DHT22;1372;47.956;7.830;2022-09-30T08:12:13;10.80;99.90
2729;DHT22;1372;47.956;7.830;2022-09-30T08:14:43;10.80;99.90
2729;DHT22;1372;47.956;7.830;2022-09-30T08:17:13;10.80;99.90
2729;DHT22;1372;47.956;7.830;2022-09-30T08:19:42;10.90;99.90
2729;DHT22;1372;47.956;7.830;2022-09-30T08:22:11;11.00;99.90
2729;DHT22;1372;47.956;7.830;2022-09-30T08:24:41;11.00;99.90
2729;DHT22;1372;47.956;7.830;2022-09-30T08:27:12;11.00;99.90
2729;DHT22;1372;47.956;7.830;2022-09-30T08:29:42;11.00;99.90
2729;DHT22;1372;47.956;7.830;2022-09-30T08:32:31;11.00;99.90
2729;DHT22;1372;47.956;7.830;2022-09-30T08:35:00;11.00;99.90
2729;DHT22;1372;47.956;7.830;2022-09-30T08:37:29;11.00;99.90
2729;DHT22;1372;47.956;7.830;2022-09-30T08:39:59;11.10;99.90
2729;DHT22;1372;47.956;7.830;2022-09-30T08:42:40;11.10;99.90
2729;DHT22;1372;47.956;7.830;2022-09-30T08:45:33;10.90;99.90
2729;DHT22;1372;47.956;7.830;2022-09-30T08:48:15;11.00;99.90
2729;DHT22;1372;47.956;7.830;2022-09-30T08:50:59;11.10;99.90
2729;DHT22;1372;47.956;7.830;2022-09-30T08:53:36;11.20;99.90
2729;DHT22;1372;47.956;7.830;2022-09-30T08:56:09;11.20;99.90
2729;DHT22;1372;47.956;7.830;2022-09-30T08:58:42;11.10;99.90
2729;DHT22;1372;47.956;7.830;2022-09-30T09:01:18;11.20;99.90
2729;DHT22;1372;47.956;7.830;2022-09-30T09:03:51;11.30;99.90
2729;DHT22;1372;47.956;7.830;2022-09-30T09:06:28;11.40;99.90
2729;DHT22;1372;47.956;7.830;2022-09-30T09:09:16;11.40;99.90
2729;DHT22;1372;47.956;7.830;2022-09-30T09:12:12;11.40;99.90
2729;DHT22;1372;47.956;7.830;2022-09-30T09:14:57;11.50;99.90
2729;DHT22;1372;47.956;7.830;2022-09-30T09:17:58;11.60;99.90
2729;DHT22;1372;47.956;7.830;2022-09-30T09:20:54;11.70;99.90
2729;DHT22;1372;47.956;7.830;2022-09-30T09:23:25;11.80;99.90
2729;DHT22;1372;47.956;7.830;2022-09-30T09:25:55;11.80;99.90
2729;DHT22;1372;47.956;7.830;2022-09-30T09:28:30;11.90;99.90
2729;DHT22;1372;47.956;7.830;2022-09-30T09:31:04;11.90;99.90
2729;DHT22;1372;47.956;7.830;2022-09-30T09:33:37;11.90;99.90
2729;DHT22;1372;47.956;7.830;2022-09-30T09:36:17;12.00;99.90
2729;DHT22;1372;47.956;7.830;2022-09-30T09:39:04;12.00;99.90
2729;DHT22;1372;47.956;7.830;2022-09-30T09:41:47;12.00;99.90
2729;DHT22;1372;47.956;7.830;2022-09-30T09:44:25;11.90;99.90
2729;DHT22;1372;47.956;7.830;2022-09-30T09:47:00;11.90;99.90
2729;DHT22;1372;47.956;7.830;2022-09-30T09:49:34;11.90;99.90
2729;DHT22;1372;47.956;7.830;2022-09-30T09:52:30;11.90;99.90
2729;DHT22;1372;47.956;7.830;2022-09-30T09:55:06;11.90;99.90
2729;DHT22;1372;47.956;7.830;2022-09-30T09:57:36;11.90;99.90
2729;DHT22;1372;47.956;7.830;2022-09-30T10:00:08;11.90;99.90
2729;DHT22;1372;47.956;7.830;2022-09-30T10:03:03;12.00;99.90
2729;DHT22;1372;47.956;7.830;2022-09-30T10:05:59;12.00;99.90
2729;DHT22;1372;47.956;7.830;2022-09-30T10:08:32;12.00;99.90
2729;DHT22;1372;47.956;7.830;2022-09-30T10:11:03;12.10;99.90
2729;DHT22;1372;47.956;7.830;2022-09-30T10:13:41;12.00;99.90
2729;DHT22;1372;47.956;7.830;2022-09-30T10:16:25;12.10;99.90
2729;DHT22;1372;47.956;7.830;2022-09-30T10:18:56;12.10;99.90
2729;DHT22;1372;47.956;7.830;2022-09-30T10:21:27;12.20;99.90
2729;DHT22;1372;47.956;7.830;2022-09-30T10:23:57;12.20;99.90
2729;DHT22;1372;47.956;7.830;2022-09-30T10:26:27;12.30;99.90
2729;DHT22;1372;47.956;7.830;2022-09-30T10:28:57;12.20;99.90
2729;DHT22;1372;47.956;7.830;2022-09-30T10:31:31;12.30;99.90
2729;DHT22;1372;47.956;7.830;2022-09-30T10:34:13;12.30;99.90
2729;DHT22;1372;47.956;7.830;2022-09-30T10:36:51;12.40;99.90
2729;DHT22;1372;47.956;7.830;2022-09-30T10:39:22;12.30;99.90
2729;DHT22;1372;47.956;7.830;2022-09-30T10:42:01;12.30;99.90
2729;DHT22;1372;47.956;7.830;2022-09-30T10:44:30;12.30;99.90
2729;DHT22;1372;47.956;7.830;2022-09-30T10:47:00;12.30;99.90
2729;DHT22;1372;47.956;7.830;2022-09-30T10:49:32;12.40;99.90
2729;DHT22;1372;47.956;7.830;2022-09-30T10:52:15;12.50;99.90
2729;DHT22;1372;47.956;7.830;2022-09-30T10:54:48;12.60;99.90
2729;DHT22;1372;47.956;7.830;2022-09-30T10:57:22;12.60;99.90
2729;DHT22;1372;47.956;7.830;2022-09-30T10:59:54;12.60;99.90
2729;DHT22;1372;47.956;7.830;2022-09-30T11:02:31;12.70;99.90
2729;DHT22;1372;47.956;7.830;2022-09-30T11:05:11;12.80;99.90
2729;DHT22;1372;47.956;7.830;2022-09-30T11:07:52;12.80;99.90
2729;DHT22;1372;47.956;7.830;2022-09-30T11:10:40;12.80;99.90
2729;DHT22;1372;47.956;7.830;2022-09-30T11:13:18;12.90;99.90
2729;DHT22;1372;47.956;7.830;2022-09-30T11:15:56;12.70;99.90
2729;DHT22;1372;47.956;7.830;2022-09-30T11:18:34;12.80;99.90
2729;DHT22;1372;47.956;7.830;2022-09-30T11:21:11;12.80;99.90
2729;DHT22;1372;47.956;7.830;2022-09-30T11:23:49;12.90;99.90
2729;DHT22;1372;47.956;7.830;2022-09-30T11:26:30;12.90;99.90
2729;DHT22;1372;47.956;7.830;2022-09-30T11:29:22;12.90;99.90
2729;DHT22;1372;47.956;7.830;2022-09-30T11:32:11;12.90;99.90
2729;DHT22;1372;47.956;7.830;2022-09-30T11:34:55;13.00;99.90
2729;DHT22;1372;47.956;7.830;2022-09-30T11:37:37;13.10;99.90
2729;DHT22;1372;47.956;7.830;2022-09-30T11:40:29;13.00;99.90
2729;DHT22;1372;47.956;7.830;2022-09-30T11:43:05;13.00;99.90
2729;DHT22;1372;47.956;7.830;2022-09-30T11:45:55;13.10;99.90
2729;DHT22;1372;47.956;7.830;2022-09-30T11:48:41;13.20;99.90
2729;DHT22;1372;47.956;7.830;2022-09-30T11:51:24;13.40;99.90
2729;DHT22;1372;47.956;7.830;2022-09-30T11:54:07;13.60;99.90
2729;DHT22;1372;47.956;7.830;2022-09-30T11:56:52;13.60;99.90
2729;DHT22;1372;47.956;7.830;2022-09-30T11:59:26;13.60;99.90
2729;DHT22;1372;47.956;7.830;2022-09-30T12:02:01;13.50;99.90
2729;DHT22;1372;47.956;7.830;2022-09-30T12:04:35;13.40;99.90
2729;DHT22;1372;47.956;7.830;2022-09-30T12:07:13;13.40;99.90
2729;DHT22;1372;47.956;7.830;2022-09-30T12:09:47;13.50;99.90
2729;DHT22;1372;47.956;7.830;2022-09-30T12:12:19;13.50;99.90
2729;DHT22;1372;47.956;7.830;2022-09-30T12:14:50;13.60;99.90
2729;DHT22;1372;47.956;7.830;2022-09-30T12:17:26;13.60;99.90
2729;DHT22;1372;47.956;7.830;2022-09-30T12:20:03;13.50;99.90
2729;DHT22;1372;47.956;7.830;2022-09-30T12:22:37;13.60;99.90
2729;DHT22;1372;47.956;7.830;2022-09-30T12:25:13;13.70;99.90
2729;DHT22;1372;47.956;7.830;2022-09-30T12:27:53;13.90;99.90
2729;DHT22;1372;47.956;7.830;2022-09-30T12:30:24;13.90;99.90
2729;DHT22;1372;47.956;7.830;2022-09-30T12:33:23;13.90;99.90
2729;DHT22;1372;47.956;7.830;2022-09-30T12:36:34;14.00;99.90
2729;DHT22;1372;47.956;7.830;2022-09-30T12:39:39;14.20;99.90
2729;DHT22;1372;47.956;7.830;2022-09-30T12:42:38;14.50;99.90
2729;DHT22;1372;47.956;7.830;2022-09-30T12:48:34;14.70;99.90
2729;DHT22;1372;47.956;7.830;2022-09-30T12:51:06;14.50;99.90
2729;DHT22;1372;47.956;7.830;2022-09-30T12:53:37;14.60;99.90
2729;DHT22;1372;47.956;7.830;2022-09-30T12:56:08;14.50;99.90
2729;DHT22;1372;47.956;7.830;2022-09-30T12:58:41;14.50;99.90
2729;DHT22;1372;47.956;7.830;2022-09-30T13:01:15;14.20;99.90
2729;DHT22;1372;47.956;7.830;2022-09-30T13:03:49;14.20;99.90
2729;DHT22;1372;47.956;7.830;2022-09-30T13:06:21;14.20;99.90
2729;DHT22;1372;47.956;7.830;2022-09-30T13:09:16;14.20;99.90
2729;DHT22;1372;47.956;7.830;2022-09-30T13:11:47;14.20;99.90
2729;DHT22;1372;47.956;7.830;2022-09-30T13:14:43;14.20;99.90
2729;DHT22;1372;47.956;7.830;2022-09-30T13:17:34;14.10;99.90
2729;DHT22;1372;47.956;7.830;2022-09-30T13:20:49;14.10;99.90
2729;DHT22;1372;47.956;7.830;2022-09-30T13:23:40;14.10;99.90
2729;DHT22;1372;47.956;7.830;2022-09-30T13:26:37;14.10;99.90
2729;DHT22;1372;47.956;7.830;2022-09-30T13:29:32;14.20;99.90
2729;DHT22;1372;47.956;7.830;2022-09-30T13:32:09;14.10;99.90
2729;DHT22;1372;47.956;7.830;2022-09-30T13:34:53;14.10;99.90
2729;DHT22;1372;47.956;7.830;2022-09-30T13:37:41;14.10;99.90
2729;DHT22;1372;47.956;7.830;2022-09-30T13:40:21;14.10;99.90
2729;DHT22;1372;47.956;7.830;2022-09-30T13:43:17;14.10;99.90
2729;DHT22;1372;47.956;7.830;2022-09-30T13:45:51;14.10;99.90
2729;DHT22;1372;47.956;7.830;2022-09-30T13:48:24;14.10;99.90
2729;DHT22;1372;47.956;7.830;2022-09-30T13:50:59;14.10;99.90
2729;DHT22;1372;47.956;7.830;2022-09-30T13:53:38;14.20;99.90
2729;DHT22;1372;47.956;7.830;2022-09-30T13:56:15;14.10;99.90
2729;DHT22;1372;47.956;7.830;2022-09-30T13:59:19;14.00;99.90
2729;DHT22;1372;47.956;7.830;2022-09-30T14:05:54;13.90;99.90
2729;DHT22;1372;47.956;7.830;2022-09-30T14:08:53;13.90;99.90
2729;DHT22;1372;47.956;7.830;2022-09-30T14:11:59;13.90;99.90
2729;DHT22;1372;47.956;7.830;2022-09-30T14:15:03;13.90;99.90
2729;DHT22;1372;47.956;7.830;2022-09-30T14:17:49;14.00;99.90
2729;DHT22;1372;47.956;7.830;2022-09-30T14:20:33;14.00;99.90
2729;DHT22;1372;47.956;7.830;2022-09-30T14:23:13;13.90;99.90
2729;DHT22;1372;47.956;7.830;2022-09-30T14:25:50;13.90;99.90
2729;DHT22;1372;47.956;7.830;2022-09-30T14:28:39;13.90;99.90
2729;DHT22;1372;47.956;7.830;2022-09-30T14:31:12;14.00;99.90
2729;DHT22;1372;47.956;7.830;2022-09-30T14:33:46;14.10;99.90
2729;DHT22;1372;47.956;7.830;2022-09-30T14:36:18;14.10;99.90
2729;DHT22;1372;47.956;7.830;2022-09-30T14:38:52;14.10;99.90
2729;DHT22;1372;47.956;7.830;2022-09-30T14:41:25;14.20;99.90
2729;DHT22;1372;47.956;7.830;2022-09-30T14:43:57;14.10;99.90
2729;DHT22;1372;47.956;7.830;2022-09-30T14:46:33;14.20;99.90
2729;DHT22;1372;47.956;7.830;2022-09-30T14:49:06;14.30;99.90
2729;DHT22;1372;47.956;7.830;2022-09-30T14:51:39;14.50;99.90
2729;DHT22;1372;47.956;7.830;2022-09-30T14:54:17;14.80;99.90
2729;DHT22;1372;47.956;7.830;2022-09-30T14:56:47;15.00;99.90
2729;DHT22;1372;47.956;7.830;2022-09-30T14:59:18;15.10;99.90
2729;DHT22;1372;47.956;7.830;2022-09-30T15:01:50;15.30;99.90
2729;DHT22;1372;47.956;7.830;2022-09-30T15:04:26;15.30;99.90
2729;DHT22;1372;47.956;7.830;2022-09-30T15:06:58;15.30;99.90
2729;DHT22;1372;47.956;7.830;2022-09-30T15:09:31;15.20;99.90
2729;DHT22;1372;47.956;7.830;2022-09-30T15:12:05;15.20;99.90
2729;DHT22;1372;47.956;7.830;2022-09-30T15:14:45;15.00;99.90
2729;DHT22;1372;47.956;7.830;2022-09-30T15:17:18;14.90;99.90
2729;DHT22;1372;47.956;7.830;2022-09-30T15:19:51;14.90;99.90
2729;DHT22;1372;47.956;7.830;2022-09-30T15:22:23;15.00;99.90
2729;DHT22;1372;47.956;7.830;2022-09-30T15:24:56;14.90;99.90
2729;DHT22;1372;47.956;7.830;2022-09-30T15:27:27;14.90;99.90
2729;DHT22;1372;47.956;7.830;2022-09-30T15:29:58;14.80;99.90
2729;DHT22;1372;47.956;7.830;2022-09-30T15:32:29;14.80;99.90
2729;DHT22;1372;47.956;7.830;2022-09-30T15:35:05;14.70;99.90
2729;DHT22;1372;47.956;7.830;2022-09-30T15:37:36;14.70;99.90
2729;DHT22;1372;47.956;7.830;2022-09-30T15:40:14;14.70;99.90
2729;DHT22;1372;47.956;7.830;2022-09-30T15:43:05;14.50;99.90
2729;DHT22;1372;47.956;7.830;2022-09-30T15:45:35;14.40;99.90
2729;DHT22;1372;47.956;7.830;2022-09-30T15:48:06;14.30;99.90
2729;DHT22;1372;47.956;7.830;2022-09-30T15:51:22;14.20;99.90
2729;DHT22;1372;47.956;7.830;2022-09-30T15:53:53;14.10;99.90
2729;DHT22;1372;47.956;7.830;2022-09-30T15:56:33;14.00;99.90
2729;DHT22;1372;47.956;7.830;2022-09-30T15:59:04;14.00;99.90
2729;DHT22;1372;47.956;7.830;2022-09-30T16:01:35;14.00;99.90
2729;DHT22;1372;47.956;7.830;2022-09-30T16:04:10;14.00;99.90
2729;DHT22;1372;47.956;7.830;2022-09-30T16:06:44;14.00;99.90
2729;DHT22;1372;47.956;7.830;2022-09-30T16:09:21;14.00;99.90
2729;DHT22;1372;47.956;7.830;2022-09-30T16:12:00;13.80;99.90
2729;DHT22;1372;47.956;7.830;2022-09-30T16:14:33;13.80;99.90
2729;DHT22;1372;47.956;7.830;2022-09-30T16:17:17;13.70;99.90
2729;DHT22;1372;47.956;7.830;2022-09-30T16:19:51;13.60;99.90
2729;DHT22;1372;47.956;7.830;2022-09-30T16:22:34;13.40;99.90
2729;DHT22;1372;47.956;7.830;2022-09-30T16:25:14;13.40;99.90
2729;DHT22;1372;47.956;7.830;2022-09-30T16:27:53;13.40;99.90
2729;DHT22;1372;47.956;7.830;2022-09-30T16:30:25;13.50;99.90
2729;DHT22;1372;47.956;7.830;2022-09-30T16:32:57;13.60;99.90
2729;DHT22;1372;47.956;7.830;2022-09-30T16:35:29;13.60;99.90
2729;DHT22;1372;47.956;7.830;2022-09-30T16:38:00;13.60;99.90
2729;DHT22;1372;47.956;7.830;2022-09-30T16:40:32;13.50;99.90
2729;DHT22;1372;47.956;7.830;2022-09-30T16:43:03;13.40;99.90
2729;DHT22;1372;47.956;7.830;2022-09-30T16:45:33;13.30;99.90
2729;DHT22;1372;47.956;7.830;2022-09-30T16:48:08;13.20;99.90
2729;DHT22;1372;47.956;7.830;2022-09-30T16:50:43;13.00;99.90
2729;DHT22;1372;47.956;7.830;2022-09-30T16:53:15;12.70;99.90
2729;DHT22;1372;47.956;7.830;2022-09-30T16:55:43;12.60;99.90
2729;DHT22;1372;47.956;7.830;2022-09-30T16:58:15;12.60;99.90
2729;DHT22;1372;47.956;7.830;2022-09-30T17:00:45;12.60;99.90
2729;DHT22;1372;47.956;7.830;2022-09-30T17:03:15;12.40;99.90
2729;DHT22;1372;47.956;7.830;2022-09-30T17:12:58;12.20;99.90